Nearby METAR Reports

 

ENRY - Rygge (nor-Afb), Norway
Distance from station: SØ 12km
Oppdatert: 01/12/2021 06:20
Ice crystals, Few clouds
Ice crystals, Few clouds
 Vind fra N
Vind: N 6 km/h
Temperatur: -11°C
Duggpunkt: -13°C
Fuktighet: 85%
Barometer: 996 hPa
Oversikt: Ice Crystals
Clouds: Few Clouds
Visibility: 6 km
Cloud details: Few Clouds 30 m
2021/12/01 05:20 ENRY 010520Z AUTO 35003KT 6000NDV IC FEW001/// M11/M13 Q0996
ENTO - Torp (civ/Nor-Af, Norway
Distance from station: SV 34km
Oppdatert: 01/12/2021 06:20
Hovedsaklig skyet
Hovedsaklig skyet
 Vind fra N
Vind: N 9 km/h
Temperatur: -10°C
Wind Chill: -15°C
Duggpunkt: -11°C
Fuktighet: 92%
Barometer: 995 hPa
Clouds: Hovedsaklig skyet
Visibility: 10 km
Cloud details: Hovedsaklig skyet 122 m
2021/12/01 05:20 ENTO 010520Z 01005KT 9999 BKN004 M10/M11 Q0995 NOSIG
 
ENNO - Notodden, Norway
Distance from station: V 80km
Oppdatert: 30/11/2021 18:50
NOT Current
Delvis skyet
Delvis skyet
 Vind fra varies
Vind: varies 2 km/h
Temperatur: -11°C
Duggpunkt: -13°C
Fuktighet: 85%
Barometer: 999 hPa
Clouds: Delvis skyet
Visibility: 10 km
Cloud details: Delvis skyet 762 m
2021/11/30 17:50 ENNO 301750Z VRB01KT 9999 SCT025 M11/M13 Q0999
ENGM - Oslo/Gardermoen, Norway
Distance from station: NNØ 88km
Oppdatert: 01/12/2021 06:20
Tåkebanker, Delvis skyet
Tåkebanker, Delvis skyet
 Vind fra varies
Vind: varies 2 km/h
Temperatur: -15°C
Duggpunkt: -17°C
Fuktighet: 85%
Barometer: 995 hPa
Oversikt: Patches of Fog
Clouds: Delvis skyet
Visibility: 10 km
Cloud details: Few Clouds 30 m
Delvis skyet 122 m
2021/12/01 05:20 ENGM 010520Z VRB01KT 9999 2800NW BCFG FEW001 SCT004 M15/M17 Q0995 TEMPO 1200 BCFG BKN002
 
ESOK - Karlstad North, Sweden
Distance from station: Ø 153km
Oppdatert: 01/12/2021 06:20
Klart
Klart
 Vind fra VSV
Vind: VSV 4 km/h
Temperatur: -13°C
Duggpunkt: -13°C
Fuktighet: 100%
Barometer: 996 hPa
Clouds: Klart
Visibility: 10 km
2021/12/01 05:20 ESOK 010520Z AUTO 25002KT 9999 NCD M13/M13 Q0996
ESST - Torsby, Sweden
Distance from station: ØNØ 154km
Oppdatert: 01/12/2021 06:20
Lett snø, Klart
Lett snø, Klart
 Vind fra calm
Vind: Stille
Temperatur: -16°C
Duggpunkt: -17°C
Fuktighet: 92%
Barometer: 996 hPa
Oversikt: Lett snø
Clouds: Klart
Visibility: 10 km
2021/12/01 05:20 ESST 010520Z AUTO 00000KT 9999 -SN NCD M16/M17 Q0996 RESN
 
ESGT - Trollhattan (pvt, Sweden
Distance from station: SØ 159km
Oppdatert: 01/12/2021 06:20
Klart
Klart
 Vind fra calm
Vind: Stille
Temperatur: -12°C
Duggpunkt: -13°C
Fuktighet: 92%
Barometer: 996 hPa
Clouds: Klart
Visibility: 1 km
2021/12/01 05:20 ESGT 010520Z AUTO 00000KT 1400 R15/P2000N R33/P2000N NCD M12/M13 Q0996
ESIB - Satenas (swe-Afb, Sweden
Distance from station: SØ 164km
Oppdatert: 01/12/2021 06:20
Delvis skyet
Delvis skyet
 Vind fra SSØ
Vind: SSØ 4 km/h
Temperatur: -10°C
Duggpunkt: -11°C
Fuktighet: 92%
Barometer: 995 hPa
Clouds: Delvis skyet
Visibility: 10 km
Cloud details: Few Clouds 610 m
Delvis skyet 6096 m
2021/12/01 05:20 ESIB 010520Z 16002KT 9999 FEW020 SCT200 M10/M11 Q0995
 
ENCN - Kristiansand/Kje, Norway
Distance from station: SV 202km
Oppdatert: 01/12/2021 06:20
Lett snø, Hovedsaklig skyet
Lett snø, Hovedsaklig skyet
 Vind fra NØ
Vind: NØ 24 km/h
Temperatur: -2°C
Wind Chill: -9°C
Duggpunkt: -4°C
Fuktighet: 86%
Barometer: 992 hPa
Oversikt: Lett snø
Clouds: Hovedsaklig skyet
Visibility: 5 km
Cloud details: Hovedsaklig skyet 1006 m
2021/12/01 05:20 ENCN 010520Z 05013KT 5000 -SN BKN033 M02/M04 Q0992
EKSN - Sindal Airport, Denmark
Distance from station: S 217km
Oppdatert: 30/11/2021 14:50
NOT Current
Hovedsaklig skyet
Hovedsaklig skyet
 Vind fra NØ
Vind: NØ 13 km/h
Temperatur: 0°C
Wind Chill: -4°C
Duggpunkt: -1°C
Fuktighet: 93%
Barometer: 995 hPa
Clouds: Hovedsaklig skyet
Visibility: 10 km
Cloud details: Delvis skyet 610 m
Hovedsaklig skyet 792 m
2021/11/30 13:50 EKSN 301350Z 05007KT 9999 SCT020 BKN026 00/M01 Q0995 R08/552095
 
ESGG - Goteborg/Landvet, Sweden
Distance from station: SSØ 220km
Oppdatert: 01/12/2021 06:20
Klart
Klart
 Vind fra Ø
Vind: Ø 11 km/h
Temperatur: -6°C
Wind Chill: -11°C
Duggpunkt: -8°C
Fuktighet: 86%
Barometer: 995 hPa
Oversikt: Klart
Visibility: greater than 10 km
2021/12/01 05:20 ESGG 010520Z 10006KT CAVOK M06/M08 Q0995
ESGR - Skovde Airport, Sweden
Distance from station: ØSØ 221km
Oppdatert: 30/11/2021 19:50
NOT Current
Overskyet
Overskyet
 Vind fra S
Vind: S 4 km/h
Temperatur: -9°C
Duggpunkt: -10°C
Fuktighet: 93%
Barometer: 997 hPa
Clouds: Overskyet
Visibility: 10 km
Cloud details: Overskyet 3048 m
2021/11/30 18:50 ESGR 301850Z 19002KT 9999 OVC100 M09/M10 Q0997
 
ESOE - Orebro (private), Sweden
Distance from station: Ø 252km
Oppdatert: 01/12/2021 06:20
Klart
Klart
 Vind fra N
Vind: N 4 km/h
Temperatur: -10°C
Duggpunkt: -11°C
Fuktighet: 92%
Barometer: 995 hPa
Oversikt: Klart
Visibility: greater than 10 km
2021/12/01 05:20 ESOE 010520Z 36002KT CAVOK M10/M11 Q0995
EKYT - Alborg, Denmark
Distance from station: S 264km
Oppdatert: 01/12/2021 06:20
Noe regn, Overskyet
Noe regn, Overskyet
 Vind fra Ø
Vind: Ø 17 km/h
Temperatur: 1°C
Wind Chill: -3°C
Duggpunkt: 0°C
Fuktighet: 93%
Barometer: 991 hPa
Oversikt: Noe regn
Clouds: Overskyet
Visibility: 9 km
Cloud details: Overskyet 914 m
2021/12/01 05:20 EKYT 010520Z AUTO 09009KT 9000 -RA OVC030/// 01/00 Q0991
 
ENSG - Sogndal/Haukasen, Norway
Distance from station: NV 269km
Oppdatert: 01/12/2021 06:20
Delvis skyet
Delvis skyet
 Vind fra ØNØ
Vind: ØNØ 17 km/h
Temperatur: -8°C
Wind Chill: -14°C
Duggpunkt: -9°C
Fuktighet: 93%
Barometer: 992 hPa
Clouds: Delvis skyet
Visibility: 10 km
Cloud details: Delvis skyet 152 m
Delvis skyet 2743 m
2021/12/01 05:20 ENSG 010520Z 06009KT 9999 SCT005 SCT090 M08/M09 Q0992 RMK WIND 3806FT 08008KT
ESGJ - Jonkoping Airpor, Sweden
Distance from station: SØ 273km
Oppdatert: 01/12/2021 06:20
Klart
Klart
 Vind fra calm
Vind: Stille
Temperatur: -11°C
Duggpunkt: -11°C
Fuktighet: 100%
Barometer: 994 hPa
Clouds: Klart
Visibility: 10 km
2021/12/01 05:20 ESGJ 010520Z AUTO 00000KT 9999 NCD M11/M11 Q0994
 
ENZV - Stavanger/Sola(A, Norway
Distance from station: V 292km
Oppdatert: 01/12/2021 06:20
Klart
Klart
 Vind fra ØNØ
Vind: ØNØ 15 km/h
Temperatur: 2°C
Wind Chill: -2°C
Duggpunkt: -4°C
Fuktighet: 65%
Barometer: 991 hPa
Oversikt: Klart
Visibility: greater than 10 km
2021/12/01 05:20 ENZV 010520Z 07008KT CAVOK 02/M04 Q0991 NOSIG
ESSD - Borlange (swe-Af, Sweden
Distance from station: ØNØ 292km
Oppdatert: 01/12/2021 06:20
Klart
Klart
 Vind fra V
Vind: V 7 km/h
Temperatur: -13°C
Wind Chill: -18°C
Duggpunkt: -15°C
Fuktighet: 85%
Barometer: 995 hPa
Clouds: Klart
Visibility: 10 km
2021/12/01 05:20 ESSD 010520Z AUTO 28004KT 9999 NCD M13/M15 Q0995
 
ENSO - Stord/Soerstokke, Norway
Distance from station: V 300km
Oppdatert: 01/12/2021 06:20
Klart
Klart
 Vind fra varies
Vind: varies 4 km/h
Temperatur: -1°C
Duggpunkt: -4°C
Fuktighet: 80%
Barometer: 992 hPa
Oversikt: Klart
Visibility: greater than 10 km
2021/12/01 05:20 ENSO 010520Z VRB02KT CAVOK M01/M04 Q0992
ESCF - Linkoping/Malmen, Sweden
Distance from station: ØSØ 305km
Oppdatert: 01/12/2021 06:20
Klart
Klart
 Vind fra N
Vind: N 9 km/h
Temperatur: -8°C
Wind Chill: -12°C
Duggpunkt: -9°C
Fuktighet: 93%
Barometer: 996 hPa
Oversikt: Klart
Visibility: greater than 10 km
2021/12/01 05:20 ESCF 010520Z 36005KT CAVOK M08/M09 Q0996